createdAt,value
2022-10-17T00:00:05.445Z,14.80
2022-10-17T00:02:55.593Z,14.35
2022-10-17T00:05:25.015Z,13.98
2022-10-17T00:07:53.197Z,13.82
2022-10-17T00:10:21.636Z,13.63
2022-10-17T00:12:50.952Z,12.75
2022-10-17T00:15:20.521Z,11.73
2022-10-17T00:17:51.605Z,15.05
2022-10-17T00:20:19.431Z,13.15
2022-10-17T00:22:46.902Z,12.85
2022-10-17T00:25:14.829Z,12.15
2022-10-17T00:27:42.683Z,12.65
2022-10-17T00:30:14.282Z,12.93
2022-10-17T00:32:41.747Z,15.95
2022-10-17T00:35:09.954Z,13.32
2022-10-17T00:37:37.537Z,14.25
2022-10-17T00:40:07.142Z,14.48
2022-10-17T00:42:34.971Z,16.48
2022-10-17T00:45:17.488Z,12.27
2022-10-17T00:47:51.573Z,14.73
2022-10-17T00:50:20.103Z,14.88
2022-10-17T00:52:48.824Z,12.20
2022-10-17T00:55:18.190Z,15.15
2022-10-17T00:57:46.170Z,11.85
2022-10-17T01:00:15.215Z,12.95
2022-10-17T01:02:42.666Z,14.05
2022-10-17T01:05:11.473Z,13.35
2022-10-17T01:07:41.673Z,12.80
2022-10-17T01:10:10.876Z,14.55
2022-10-17T01:13:05.914Z,13.80
2022-10-17T01:15:36.557Z,11.35
2022-10-17T01:18:22.603Z,13.70
2022-10-17T01:20:59.012Z,14.55
2022-10-17T01:23:47.693Z,12.50
2022-10-17T01:26:45.580Z,14.23
2022-10-17T01:29:33.709Z,12.90
2022-10-17T01:32:18.745Z,14.80
2022-10-17T01:35:07.951Z,13.35
2022-10-17T01:38:12.853Z,15.63
2022-10-17T01:40:49.138Z,13.18
2022-10-17T01:43:29.458Z,12.10
2022-10-17T01:46:02.648Z,13.25
2022-10-17T01:48:35.753Z,12.95
2022-10-17T01:51:09.154Z,14.23
2022-10-17T01:53:42.344Z,14.30
2022-10-17T01:56:13.065Z,11.77
2022-10-17T01:58:47.392Z,12.48
2022-10-17T02:01:17.298Z,12.10
2022-10-17T02:03:47.458Z,14.20
2022-10-17T02:06:15.069Z,12.30
2022-10-17T02:08:46.049Z,13.15
2022-10-17T02:11:15.992Z,13.80
2022-10-17T02:14:04.223Z,12.50
2022-10-17T02:16:35.029Z,12.00
2022-10-17T02:19:29.883Z,12.60
2022-10-17T02:22:21.298Z,12.52
2022-10-17T02:25:19.649Z,13.98
2022-10-17T02:27:57.537Z,11.80
2022-10-17T02:30:39.922Z,13.70
2022-10-17T02:33:23.193Z,12.45
2022-10-17T02:35:55.110Z,13.77
2022-10-17T02:38:25.424Z,13.02
2022-10-17T02:40:53.364Z,12.25
2022-10-17T02:43:21.992Z,11.80
2022-10-17T02:45:52.501Z,11.45
2022-10-17T02:48:43.691Z,13.52
2022-10-17T02:51:40.222Z,11.15
2022-10-17T02:56:51.656Z,12.52
2022-10-17T02:59:22.567Z,12.45
2022-10-17T03:01:51.573Z,12.40
2022-10-17T03:04:19.520Z,12.68
2022-10-17T03:06:48.381Z,13.20
2022-10-17T03:09:16.313Z,12.32
2022-10-17T03:11:43.824Z,14.63
2022-10-17T03:14:11.134Z,11.93
2022-10-17T03:16:38.724Z,12.73
2022-10-17T03:19:06.229Z,12.60
2022-10-17T03:21:36.336Z,13.57
2022-10-17T03:24:04.286Z,15.18
2022-10-17T03:26:31.939Z,12.10
2022-10-17T03:28:59.236Z,12.77
2022-10-17T03:31:26.892Z,12.93
2022-10-17T03:33:54.171Z,14.95
2022-10-17T03:36:22.029Z,12.48
2022-10-17T03:38:49.393Z,15.63
2022-10-17T03:41:16.983Z,11.48
2022-10-17T03:43:44.358Z,12.38
2022-10-17T03:46:11.871Z,12.48
2022-10-17T03:48:39.199Z,12.50
2022-10-17T03:51:09.223Z,13.07
2022-10-17T03:53:36.546Z,13.68
2022-10-17T03:56:12.469Z,12.48
2022-10-17T03:58:40.460Z,12.60
2022-10-17T04:01:10.470Z,11.93
2022-10-17T04:03:38.281Z,11.93
2022-10-17T04:06:06.792Z,12.32
2022-10-17T04:08:34.833Z,13.80
2022-10-17T04:11:04.447Z,12.23
2022-10-17T04:13:31.963Z,14.60
2022-10-17T04:16:02.348Z,12.23
2022-10-17T04:18:29.684Z,13.27
2022-10-17T04:20:57.446Z,13.93
2022-10-17T04:23:26.470Z,11.43
2022-10-17T04:25:58.504Z,13.43
2022-10-17T04:28:27.152Z,13.80
2022-10-17T04:30:58.157Z,13.38
2022-10-17T04:33:25.689Z,12.52
2022-10-17T04:36:13.632Z,12.00
2022-10-17T04:38:41.383Z,11.63
2022-10-17T04:41:13.010Z,14.50
2022-10-17T04:43:41.204Z,12.35
2022-10-17T04:46:11.681Z,11.07
2022-10-17T04:48:40.113Z,10.25
2022-10-17T04:51:12.123Z,12.95
2022-10-17T04:53:40.812Z,13.07
2022-10-17T04:56:14.742Z,11.32
2022-10-17T04:58:43.026Z,14.98
2022-10-17T05:01:12.905Z,11.10
2022-10-17T05:03:40.641Z,11.55
2022-10-17T05:06:14.721Z,13.80
2022-10-17T05:08:43.034Z,13.10
2022-10-17T05:11:20.989Z,11.20
2022-10-17T05:13:58.562Z,16.10
2022-10-17T05:16:27.814Z,12.13
2022-10-17T05:18:57.184Z,12.70
2022-10-17T05:21:27.136Z,13.07
2022-10-17T05:23:55.192Z,12.55
2022-10-17T05:26:23.961Z,11.52
2022-10-17T05:28:54.853Z,11.82
2022-10-17T05:31:22.505Z,12.18
2022-10-17T05:33:49.855Z,12.50
2022-10-17T05:36:17.445Z,14.30
2022-10-17T05:38:49.301Z,16.02
2022-10-17T05:41:16.910Z,12.68
2022-10-17T05:43:44.390Z,16.40
2022-10-17T05:46:12.169Z,14.35
2022-10-17T05:48:39.425Z,17.48
2022-10-17T05:51:09.392Z,14.00
2022-10-17T05:53:40.045Z,16.67
2022-10-17T05:56:10.759Z,13.52
2022-10-17T05:58:50.348Z,15.82
2022-10-17T06:01:19.486Z,14.18
2022-10-17T06:03:46.751Z,13.93
2022-10-17T06:06:15.403Z,15.02
2022-10-17T06:08:43.560Z,12.50
2022-10-17T06:11:12.402Z,12.82
2022-10-17T06:13:41.193Z,17.63
2022-10-17T06:16:09.254Z,13.40
2022-10-17T06:18:42.864Z,12.43
2022-10-17T06:21:12.507Z,17.88
2022-10-17T06:23:39.860Z,14.63
2022-10-17T06:26:07.653Z,13.95
2022-10-17T06:28:35.855Z,13.65
2022-10-17T06:31:11.544Z,14.02
2022-10-17T06:33:39.509Z,13.35
2022-10-17T06:36:10.139Z,13.85
2022-10-17T06:38:37.731Z,11.90
2022-10-17T06:41:10.024Z,15.70
2022-10-17T06:43:37.939Z,12.30
2022-10-17T06:46:05.745Z,13.93
2022-10-17T06:48:33.319Z,13.25
2022-10-17T06:51:06.110Z,13.77
2022-10-17T06:53:34.941Z,15.18
2022-10-17T06:56:04.196Z,12.52
2022-10-17T06:58:36.006Z,14.25
2022-10-17T07:03:34.713Z,12.27
2022-10-17T07:06:03.281Z,11.40
2022-10-17T07:08:30.775Z,11.88
2022-10-17T07:10:58.723Z,12.70
2022-10-17T07:13:26.013Z,13.35
2022-10-17T07:18:25.671Z,13.77
2022-10-17T07:20:55.096Z,12.40
2022-10-17T07:23:23.054Z,12.82
2022-10-17T07:25:50.774Z,12.43
2022-10-17T07:28:18.506Z,13.60
2022-10-17T07:30:49.316Z,12.70
2022-10-17T07:33:18.019Z,13.45
2022-10-17T07:35:45.548Z,12.60
2022-10-17T07:38:12.837Z,11.45
2022-10-17T07:40:40.567Z,12.80
2022-10-17T07:43:07.973Z,11.93
2022-10-17T07:45:35.498Z,11.80
2022-10-17T07:48:02.837Z,11.88
2022-10-17T07:50:31.699Z,10.45
2022-10-17T07:52:59.088Z,10.52
2022-10-17T07:55:26.641Z,13.50
2022-10-17T07:57:53.973Z,13.18
2022-10-17T08:00:21.588Z,12.05
2022-10-17T08:02:49.091Z,11.85
2022-10-17T08:05:16.585Z,12.10
2022-10-17T08:07:44.077Z,12.02
2022-10-17T08:10:13.484Z,12.55
2022-10-17T08:12:40.986Z,11.18
2022-10-17T08:15:10.121Z,12.10
2022-10-17T08:17:38.858Z,11.85
2022-10-17T08:20:06.935Z,10.35
2022-10-17T08:22:34.910Z,11.77
2022-10-17T08:25:02.600Z,9.93
2022-10-17T08:27:30.133Z,10.40
2022-10-17T08:29:57.635Z,13.35
2022-10-17T08:32:27.240Z,10.50
2022-10-17T08:34:56.317Z,12.23
2022-10-17T08:37:24.058Z,11.95
2022-10-17T08:39:51.609Z,12.57
2022-10-17T08:42:21.705Z,11.43
2022-10-17T08:45:01.030Z,11.02
2022-10-17T08:47:38.249Z,11.23
2022-10-17T08:50:10.453Z,13.00
2022-10-17T08:52:52.405Z,10.30
2022-10-17T08:55:40.001Z,11.48
2022-10-17T08:58:17.047Z,11.40
2022-10-17T09:01:20.533Z,10.80
2022-10-17T09:04:21.794Z,12.05
2022-10-17T09:07:01.089Z,12.23
2022-10-17T09:09:34.373Z,11.15
2022-10-17T09:12:24.754Z,10.27
2022-10-17T09:15:13.708Z,10.88
2022-10-17T09:18:02.353Z,11.40
2022-10-17T09:20:38.278Z,10.27
2022-10-17T09:23:21.136Z,12.52
2022-10-17T09:25:52.482Z,10.90
2022-10-17T09:28:27.754Z,11.38
2022-10-17T09:31:05.112Z,10.98
2022-10-17T13:21:30.065Z,8.90
2022-10-17T13:23:57.667Z,8.93
2022-10-17T13:26:27.718Z,8.75
2022-10-17T13:29:04.742Z,10.43
2022-10-17T13:31:35.870Z,9.50
2022-10-17T13:34:19.484Z,8.00
2022-10-17T13:36:49.117Z,9.48
2022-10-17T13:39:32.644Z,8.35
2022-10-17T13:42:28.604Z,7.85
2022-10-17T13:44:58.386Z,8.35
2022-10-17T13:47:28.816Z,8.27
2022-10-17T13:49:58.333Z,8.88
2022-10-17T13:52:30.155Z,10.30
2022-10-17T13:55:17.567Z,7.85
2022-10-17T13:57:45.086Z,8.25
2022-10-17T14:00:20.743Z,8.80
2022-10-17T14:02:48.826Z,8.40
2022-10-17T14:05:21.752Z,8.52
2022-10-17T14:08:11.230Z,8.70
2022-10-17T14:10:41.685Z,10.10
2022-10-17T14:13:23.798Z,9.40
2022-10-17T14:15:53.916Z,8.93
2022-10-17T14:18:26.803Z,9.85
2022-10-17T14:21:34.003Z,8.82
2022-10-17T14:23:44.020Z,9.75
2022-10-17T14:26:16.814Z,8.65
2022-10-17T14:29:05.023Z,8.43
2022-10-17T14:31:37.008Z,8.98
2022-10-17T14:34:05.414Z,7.80
2022-10-17T14:36:38.051Z,7.53
2022-10-17T14:39:13.343Z,7.30
2022-10-17T14:41:45.411Z,8.93
2022-10-17T14:44:24.060Z,8.07
2022-10-17T14:46:55.990Z,7.93
2022-10-17T14:49:39.491Z,7.32
2022-10-17T14:52:18.340Z,8.75
2022-10-17T14:54:57.795Z,6.78
2022-10-17T14:57:31.283Z,7.10
2022-10-17T14:59:58.727Z,8.65
2022-10-17T15:02:28.483Z,7.18
2022-10-17T15:04:56.313Z,9.38
2022-10-17T15:07:24.343Z,7.93
2022-10-17T15:09:53.670Z,7.00
2022-10-17T15:12:25.587Z,9.02
2022-10-17T15:14:53.328Z,8.05
2022-10-17T15:17:29.933Z,7.65
2022-10-17T15:19:57.885Z,8.13
2022-10-17T15:22:25.402Z,7.13
2022-10-17T15:24:52.846Z,6.90
2022-10-17T15:27:22.817Z,7.22
2022-10-17T15:29:51.607Z,8.15
2022-10-17T15:32:19.497Z,7.95
2022-10-17T15:34:46.999Z,8.48
2022-10-17T15:37:21.976Z,7.78
2022-10-17T15:39:54.806Z,7.38
2022-10-17T15:42:26.941Z,7.53
2022-10-17T15:44:54.552Z,7.43
2022-10-17T15:47:27.414Z,7.80
2022-10-17T15:49:55.497Z,8.70
2022-10-17T15:52:23.911Z,8.48
2022-10-17T15:54:52.665Z,7.75
2022-10-17T15:57:24.555Z,8.35
2022-10-17T15:59:54.022Z,7.72
2022-10-17T16:02:23.508Z,7.93
2022-10-17T16:04:52.857Z,9.95
2022-10-17T16:07:20.997Z,8.93
2022-10-17T16:09:48.414Z,9.38
2022-10-17T16:12:26.702Z,8.85
2022-10-17T16:14:54.759Z,8.93
2022-10-17T16:17:22.323Z,6.78
2022-10-17T16:19:49.965Z,8.43
2022-10-17T16:22:38.550Z,7.95
2022-10-17T16:25:09.799Z,14.15
2022-10-17T16:27:38.334Z,10.32
2022-10-17T16:30:07.594Z,7.22
2022-10-17T16:32:35.178Z,9.45
2022-10-17T16:35:02.680Z,8.48
2022-10-17T16:37:30.384Z,7.57
2022-10-17T16:39:57.737Z,8.02
2022-10-17T16:42:25.307Z,8.13
2022-10-17T16:44:52.657Z,8.13
2022-10-17T16:47:20.168Z,7.78
2022-10-17T16:49:47.548Z,8.38
2022-10-17T16:52:15.632Z,8.75
2022-10-17T16:54:42.938Z,9.45
2022-10-17T16:57:10.567Z,7.90
2022-10-17T16:59:37.996Z,7.07
2022-10-17T17:02:06.083Z,7.68
2022-10-17T17:04:33.577Z,8.50
2022-10-17T17:07:01.263Z,7.95
2022-10-17T17:09:28.734Z,8.23
2022-10-17T17:11:56.308Z,8.15
2022-10-17T17:14:23.774Z,7.57
2022-10-17T17:16:51.419Z,7.32
2022-10-17T17:19:18.826Z,9.77
2022-10-17T17:21:52.461Z,7.65
2022-10-17T17:24:21.519Z,8.02
2022-10-17T17:26:54.254Z,8.20
2022-10-17T17:29:22.856Z,9.48
2022-10-17T17:31:51.021Z,7.68
2022-10-17T17:34:18.619Z,7.18
2022-10-17T17:36:47.233Z,7.05
2022-10-17T17:39:15.683Z,9.63
2022-10-17T17:41:44.193Z,7.07
2022-10-17T17:44:18.291Z,7.55
2022-10-17T17:46:46.333Z,10.00
2022-10-17T17:49:14.086Z,7.60
2022-10-17T17:51:45.979Z,7.45
2022-10-17T17:54:14.209Z,13.45
2022-10-17T17:56:42.039Z,7.82
2022-10-17T17:59:12.289Z,7.80
2022-10-17T18:01:40.431Z,7.43
2022-10-17T18:04:08.979Z,6.97
2022-10-17T18:06:38.886Z,7.15
2022-10-17T18:09:08.452Z,7.80
2022-10-17T18:11:37.469Z,7.13
2022-10-17T18:14:08.134Z,9.60
2022-10-17T18:16:37.949Z,8.20
2022-10-17T18:19:07.437Z,6.88
2022-10-17T18:21:36.328Z,7.22
2022-10-17T18:24:04.847Z,8.73
2022-10-17T18:26:32.997Z,8.55
2022-10-17T18:29:00.417Z,7.68
2022-10-17T18:31:32.089Z,8.75
2022-10-17T18:34:00.262Z,7.72
2022-10-17T18:36:29.556Z,10.07
2022-10-17T18:39:00.664Z,7.88
2022-10-17T18:41:28.868Z,6.57
2022-10-17T18:43:56.723Z,9.60
2022-10-17T18:46:30.178Z,9.40
2022-10-17T18:48:58.385Z,8.55
2022-10-17T18:51:26.869Z,8.52
2022-10-17T18:53:56.419Z,7.53
2022-10-17T18:56:25.165Z,8.48
2022-10-17T18:58:53.030Z,8.70
2022-10-17T19:01:22.828Z,9.68
2022-10-17T19:03:52.382Z,8.50
2022-10-17T19:06:23.268Z,7.00
2022-10-17T19:08:50.962Z,8.10
2022-10-17T19:11:21.869Z,7.68
2022-10-17T19:13:49.644Z,9.32
2022-10-17T19:16:24.629Z,6.32
2022-10-17T19:19:00.613Z,9.05
2022-10-17T19:21:28.172Z,7.25
2022-10-17T19:23:58.232Z,7.18
2022-10-17T19:26:27.627Z,6.97
2022-10-17T19:28:55.189Z,7.65
2022-10-17T19:31:27.114Z,7.90
2022-10-17T19:33:55.936Z,7.47
2022-10-17T19:36:32.356Z,7.88
2022-10-17T19:39:06.392Z,6.93
2022-10-17T19:41:35.994Z,7.10
2022-10-17T19:44:03.533Z,7.63
2022-10-17T19:46:33.789Z,10.68
2022-10-17T19:49:01.546Z,10.13
2022-10-17T19:51:29.997Z,6.72
2022-10-17T19:54:02.519Z,8.75
2022-10-17T19:56:33.260Z,10.65
2022-10-17T19:59:00.676Z,8.63
2022-10-17T20:01:32.380Z,10.10
2022-10-17T20:04:00.423Z,6.63
2022-10-17T20:06:27.983Z,8.63
2022-10-17T20:08:55.975Z,8.60
2022-10-17T20:11:26.082Z,8.10
2022-10-17T20:13:54.896Z,9.15
2022-10-17T20:16:25.929Z,8.73
2022-10-17T20:18:56.917Z,14.98
2022-10-17T20:21:27.385Z,7.10
2022-10-17T20:23:55.154Z,8.98
2022-10-17T20:26:37.088Z,8.70
2022-10-17T20:29:11.974Z,10.57
2022-10-17T20:31:41.724Z,9.48
2022-10-17T20:34:11.683Z,8.57
2022-10-17T20:36:39.295Z,10.82
2022-10-17T20:39:07.458Z,8.65
2022-10-17T20:41:35.125Z,7.70
2022-10-17T20:44:02.573Z,8.15
2022-10-17T20:46:36.976Z,6.47
2022-10-17T20:49:07.548Z,7.15
2022-10-17T20:51:36.111Z,7.43
2022-10-17T20:54:04.463Z,7.97
2022-10-17T20:56:33.390Z,9.57
2022-10-17T20:59:04.509Z,8.55
2022-10-17T21:01:34.185Z,7.65
2022-10-17T21:04:21.374Z,7.63
2022-10-17T21:06:51.842Z,9.68
2022-10-17T21:09:20.166Z,7.75
2022-10-17T21:11:51.114Z,8.55
2022-10-17T21:14:18.825Z,9.95
2022-10-17T21:16:46.535Z,8.02
2022-10-17T21:19:14.889Z,7.43
2022-10-17T21:21:44.839Z,7.93
2022-10-17T21:24:14.582Z,8.40
2022-10-17T21:26:43.586Z,8.07
2022-10-17T21:29:13.112Z,7.75
2022-10-17T21:31:43.448Z,7.88
2022-10-17T21:34:17.661Z,7.50
2022-10-17T21:36:45.524Z,8.13
2022-10-17T21:39:14.098Z,7.82
2022-10-17T21:41:42.985Z,6.88
2022-10-17T21:44:16.893Z,7.40
2022-10-17T21:46:44.765Z,7.63
2022-10-17T21:49:14.156Z,7.68
2022-10-17T21:51:42.275Z,10.55
2022-10-17T21:54:09.642Z,8.52
2022-10-17T21:56:37.753Z,9.77
2022-10-17T21:59:06.793Z,8.52
2022-10-17T22:01:37.325Z,8.63
2022-10-17T22:04:07.494Z,7.75
2022-10-17T22:06:40.318Z,9.23
2022-10-17T22:09:14.753Z,9.73
2022-10-17T22:11:45.389Z,9.17
2022-10-17T22:14:15.286Z,7.93
2022-10-17T22:16:44.949Z,9.25
2022-10-17T22:19:14.070Z,8.32
2022-10-17T22:21:42.216Z,9.05
2022-10-17T22:24:12.519Z,9.07
2022-10-17T22:26:40.707Z,9.07
2022-10-17T22:29:08.912Z,7.00
2022-10-17T22:31:37.781Z,8.32
2022-10-17T22:34:06.012Z,7.80
2022-10-17T22:36:35.084Z,11.63
2022-10-17T22:39:03.692Z,12.75
2022-10-17T22:41:31.418Z,8.93
2022-10-17T22:43:58.841Z,7.70
2022-10-17T22:46:26.457Z,9.63
2022-10-17T22:48:53.839Z,9.30
2022-10-17T22:51:21.515Z,9.90
2022-10-17T22:53:48.834Z,8.60
2022-10-17T22:56:19.309Z,8.20
2022-10-17T22:58:47.292Z,10.20
2022-10-17T23:01:17.785Z,9.07
2022-10-17T23:03:45.497Z,9.20
2022-10-17T23:06:13.771Z,8.82
2022-10-17T23:08:41.148Z,7.63
2022-10-17T23:11:09.649Z,8.95
2022-10-17T23:13:37.728Z,9.48
2022-10-17T23:16:05.498Z,9.77
2022-10-17T23:18:32.925Z,8.18
2022-10-17T23:21:00.458Z,8.70
2022-10-17T23:23:27.799Z,9.27
2022-10-17T23:25:56.333Z,9.27
2022-10-17T23:28:23.739Z,9.23
2022-10-17T23:30:51.365Z,9.32
2022-10-17T23:33:18.611Z,9.77
2022-10-17T23:35:46.166Z,7.97
2022-10-17T23:38:13.444Z,10.38
2022-10-17T23:40:40.996Z,9.43
2022-10-17T23:43:08.493Z,9.80
2022-10-17T23:45:37.213Z,7.70
2022-10-17T23:48:05.455Z,10.45
2022-10-17T23:50:33.034Z,8.88
2022-10-17T23:53:00.377Z,9.20
2022-10-17T23:55:28.065Z,8.57
2022-10-17T23:57:55.424Z,8.82
